sensor_id;sensor_type;location;lat;lon;timestamp;P1;durP1;ratioP1;P2;durP2;ratioP2
60612;SDS011;46443;59.792;17.626;2023-07-30T00:01:58;4.87;;;3.10;;
60612;SDS011;46443;59.792;17.626;2023-07-30T00:04:25;5.53;;;3.23;;
60612;SDS011;46443;59.792;17.626;2023-07-30T00:06:51;5.77;;;3.50;;
60612;SDS011;46443;59.792;17.626;2023-07-30T00:09:17;4.63;;;3.03;;
60612;SDS011;46443;59.792;17.626;2023-07-30T00:11:43;5.67;;;3.17;;
60612;SDS011;46443;59.792;17.626;2023-07-30T00:14:09;4.90;;;3.27;;
60612;SDS011;46443;59.792;17.626;2023-07-30T00:16:35;5.00;;;3.10;;
60612;SDS011;46443;59.792;17.626;2023-07-30T00:19:01;7.93;;;3.40;;
60612;SDS011;46443;59.792;17.626;2023-07-30T00:21:27;6.43;;;3.00;;
60612;SDS011;46443;59.792;17.626;2023-07-30T00:23:53;4.80;;;3.07;;
60612;SDS011;46443;59.792;17.626;2023-07-30T00:26:19;5.70;;;3.10;;
60612;SDS011;46443;59.792;17.626;2023-07-30T00:28:45;5.83;;;3.20;;
60612;SDS011;46443;59.792;17.626;2023-07-30T00:31:11;5.10;;;3.07;;
60612;SDS011;46443;59.792;17.626;2023-07-30T00:33:37;7.33;;;3.20;;
60612;SDS011;46443;59.792;17.626;2023-07-30T00:36:03;6.73;;;2.83;;
60612;SDS011;46443;59.792;17.626;2023-07-30T00:38:29;5.20;;;3.27;;
60612;SDS011;46443;59.792;17.626;2023-07-30T00:40:56;7.53;;;2.97;;
60612;SDS011;46443;59.792;17.626;2023-07-30T00:43:22;6.60;;;3.33;;
60612;SDS011;46443;59.792;17.626;2023-07-30T00:45:48;5.33;;;3.03;;
60612;SDS011;46443;59.792;17.626;2023-07-30T00:48:14;4.90;;;3.30;;
60612;SDS011;46443;59.792;17.626;2023-07-30T00:50:40;4.87;;;3.10;;
60612;SDS011;46443;59.792;17.626;2023-07-30T00:53:09;5.00;;;2.90;;
60612;SDS011;46443;59.792;17.626;2023-07-30T00:55:37;5.30;;;3.20;;
60612;SDS011;46443;59.792;17.626;2023-07-30T00:58:03;5.13;;;3.10;;
60612;SDS011;46443;59.792;17.626;2023-07-30T01:00:30;5.03;;;3.33;;
60612;SDS011;46443;59.792;17.626;2023-07-30T01:02:57;5.97;;;3.00;;
60612;SDS011;46443;59.792;17.626;2023-07-30T01:05:23;4.73;;;3.00;;
60612;SDS011;46443;59.792;17.626;2023-07-30T01:07:49;5.03;;;3.03;;
60612;SDS011;46443;59.792;17.626;2023-07-30T01:10:15;4.73;;;2.90;;
60612;SDS011;46443;59.792;17.626;2023-07-30T01:12:41;4.47;;;3.20;;
60612;SDS011;46443;59.792;17.626;2023-07-30T01:15:08;7.00;;;3.67;;
60612;SDS011;46443;59.792;17.626;2023-07-30T01:17:35;5.40;;;3.53;;
60612;SDS011;46443;59.792;17.626;2023-07-30T01:20:01;7.20;;;3.30;;
60612;SDS011;46443;59.792;17.626;2023-07-30T01:22:27;7.40;;;3.50;;
60612;SDS011;46443;59.792;17.626;2023-07-30T01:24:53;6.83;;;3.07;;
60612;SDS011;46443;59.792;17.626;2023-07-30T01:27:24;6.43;;;3.30;;
60612;SDS011;46443;59.792;17.626;2023-07-30T01:29:51;4.73;;;3.30;;
60612;SDS011;46443;59.792;17.626;2023-07-30T01:32:20;5.33;;;3.40;;
60612;SDS011;46443;59.792;17.626;2023-07-30T01:37:15;5.77;;;3.10;;
60612;SDS011;46443;59.792;17.626;2023-07-30T01:39:42;5.00;;;3.27;;
60612;SDS011;46443;59.792;17.626;2023-07-30T01:42:08;6.43;;;3.53;;
60612;SDS011;46443;59.792;17.626;2023-07-30T01:44:34;6.07;;;3.30;;
60612;SDS011;46443;59.792;17.626;2023-07-30T01:47:00;5.63;;;3.67;;
60612;SDS011;46443;59.792;17.626;2023-07-30T01:49:26;4.60;;;2.83;;
60612;SDS011;46443;59.792;17.626;2023-07-30T01:51:52;4.70;;;3.13;;
60612;SDS011;46443;59.792;17.626;2023-07-30T01:54:18;5.37;;;3.50;;
60612;SDS011;46443;59.792;17.626;2023-07-30T01:56:44;5.37;;;3.70;;
60612;SDS011;46443;59.792;17.626;2023-07-30T01:59:10;6.83;;;3.20;;
60612;SDS011;46443;59.792;17.626;2023-07-30T02:01:36;4.83;;;3.40;;
60612;SDS011;46443;59.792;17.626;2023-07-30T02:04:03;5.87;;;3.33;;
60612;SDS011;46443;59.792;17.626;2023-07-30T02:06:29;5.63;;;3.40;;
60612;SDS011;46443;59.792;17.626;2023-07-30T02:08:55;4.70;;;3.00;;
60612;SDS011;46443;59.792;17.626;2023-07-30T02:11:21;4.80;;;3.37;;
60612;SDS011;46443;59.792;17.626;2023-07-30T02:13:47;5.87;;;3.40;;
60612;SDS011;46443;59.792;17.626;2023-07-30T02:16:13;4.70;;;3.27;;
60612;SDS011;46443;59.792;17.626;2023-07-30T02:18:39;4.53;;;3.10;;
60612;SDS011;46443;59.792;17.626;2023-07-30T02:21:05;5.47;;;3.50;;
60612;SDS011;46443;59.792;17.626;2023-07-30T02:23:31;7.50;;;3.80;;
60612;SDS011;46443;59.792;17.626;2023-07-30T02:25:57;7.00;;;3.60;;
60612;SDS011;46443;59.792;17.626;2023-07-30T02:28:23;5.00;;;3.23;;
60612;SDS011;46443;59.792;17.626;2023-07-30T02:30:50;5.03;;;3.30;;
60612;SDS011;46443;59.792;17.626;2023-07-30T02:33:16;4.63;;;3.30;;
60612;SDS011;46443;59.792;17.626;2023-07-30T02:35:45;5.97;;;3.30;;
60612;SDS011;46443;59.792;17.626;2023-07-30T02:38:11;6.68;;;3.72;;
60612;SDS011;46443;59.792;17.626;2023-07-30T02:40:37;4.80;;;3.23;;
60612;SDS011;46443;59.792;17.626;2023-07-30T02:43:03;5.93;;;3.47;;
60612;SDS011;46443;59.792;17.626;2023-07-30T02:45:29;6.60;;;3.40;;
60612;SDS011;46443;59.792;17.626;2023-07-30T02:47:55;5.90;;;3.20;;
60612;SDS011;46443;59.792;17.626;2023-07-30T02:50:21;6.00;;;3.43;;
60612;SDS011;46443;59.792;17.626;2023-07-30T02:52:47;5.30;;;3.43;;
60612;SDS011;46443;59.792;17.626;2023-07-30T02:55:13;8.53;;;3.70;;
60612;SDS011;46443;59.792;17.626;2023-07-30T02:57:41;7.60;;;3.90;;
60612;SDS011;46443;59.792;17.626;2023-07-30T03:00:07;5.87;;;3.80;;
60612;SDS011;46443;59.792;17.626;2023-07-30T03:02:36;6.35;;;3.30;;
60612;SDS011;46443;59.792;17.626;2023-07-30T03:05:02;5.80;;;3.70;;
60612;SDS011;46443;59.792;17.626;2023-07-30T03:07:28;7.17;;;3.77;;
60612;SDS011;46443;59.792;17.626;2023-07-30T03:09:54;6.37;;;3.40;;
60612;SDS011;46443;59.792;17.626;2023-07-30T03:12:20;5.80;;;3.40;;
60612;SDS011;46443;59.792;17.626;2023-07-30T03:14:46;5.60;;;3.50;;
60612;SDS011;46443;59.792;17.626;2023-07-30T03:17:12;7.33;;;3.70;;
60612;SDS011;46443;59.792;17.626;2023-07-30T03:19:38;6.37;;;3.70;;
60612;SDS011;46443;59.792;17.626;2023-07-30T03:22:04;5.97;;;3.83;;
60612;SDS011;46443;59.792;17.626;2023-07-30T03:24:31;5.97;;;3.80;;
60612;SDS011;46443;59.792;17.626;2023-07-30T03:26:57;7.17;;;4.10;;
60612;SDS011;46443;59.792;17.626;2023-07-30T03:29:23;6.60;;;3.87;;
60612;SDS011;46443;59.792;17.626;2023-07-30T03:31:49;5.80;;;3.90;;
60612;SDS011;46443;59.792;17.626;2023-07-30T03:34:15;6.13;;;3.90;;
60612;SDS011;46443;59.792;17.626;2023-07-30T03:36:41;5.77;;;3.80;;
60612;SDS011;46443;59.792;17.626;2023-07-30T03:39:07;5.77;;;3.83;;
60612;SDS011;46443;59.792;17.626;2023-07-30T03:41:33;6.43;;;3.80;;
60612;SDS011;46443;59.792;17.626;2023-07-30T03:44:00;6.00;;;3.43;;
60612;SDS011;46443;59.792;17.626;2023-07-30T03:46:26;5.33;;;3.60;;
60612;SDS011;46443;59.792;17.626;2023-07-30T03:48:52;5.70;;;3.53;;
60612;SDS011;46443;59.792;17.626;2023-07-30T03:51:18;5.53;;;3.80;;
60612;SDS011;46443;59.792;17.626;2023-07-30T03:53:44;6.30;;;3.53;;
60612;SDS011;46443;59.792;17.626;2023-07-30T03:56:10;6.47;;;4.00;;
60612;SDS011;46443;59.792;17.626;2023-07-30T03:58:37;6.67;;;3.77;;
60612;SDS011;46443;59.792;17.626;2023-07-30T04:01:03;6.50;;;3.60;;
60612;SDS011;46443;59.792;17.626;2023-07-30T04:03:29;6.80;;;3.50;;
60612;SDS011;46443;59.792;17.626;2023-07-30T04:05:55;6.50;;;3.77;;
60612;SDS011;46443;59.792;17.626;2023-07-30T04:08:21;6.07;;;3.87;;
60612;SDS011;46443;59.792;17.626;2023-07-30T04:10:47;5.77;;;3.50;;
60612;SDS011;46443;59.792;17.626;2023-07-30T04:13:13;4.80;;;3.37;;
60612;SDS011;46443;59.792;17.626;2023-07-30T04:15:39;7.17;;;3.50;;
60612;SDS011;46443;59.792;17.626;2023-07-30T04:18:05;6.43;;;3.60;;
60612;SDS011;46443;59.792;17.626;2023-07-30T04:20:31;6.97;;;3.70;;
60612;SDS011;46443;59.792;17.626;2023-07-30T04:22:57;6.50;;;3.73;;
60612;SDS011;46443;59.792;17.626;2023-07-30T04:25:23;6.73;;;4.23;;
60612;SDS011;46443;59.792;17.626;2023-07-30T04:27:49;5.80;;;3.40;;
60612;SDS011;46443;59.792;17.626;2023-07-30T04:30:16;6.10;;;3.60;;
60612;SDS011;46443;59.792;17.626;2023-07-30T04:32:42;6.70;;;3.53;;
60612;SDS011;46443;59.792;17.626;2023-07-30T04:35:08;6.57;;;4.17;;
60612;SDS011;46443;59.792;17.626;2023-07-30T04:37:34;5.33;;;3.50;;
60612;SDS011;46443;59.792;17.626;2023-07-30T04:40:00;5.50;;;3.37;;
60612;SDS011;46443;59.792;17.626;2023-07-30T04:42:26;6.00;;;3.70;;
60612;SDS011;46443;59.792;17.626;2023-07-30T04:44:52;5.90;;;3.67;;
60612;SDS011;46443;59.792;17.626;2023-07-30T04:47:18;4.77;;;3.40;;
60612;SDS011;46443;59.792;17.626;2023-07-30T04:49:44;6.00;;;3.77;;
60612;SDS011;46443;59.792;17.626;2023-07-30T04:52:10;7.97;;;3.83;;
60612;SDS011;46443;59.792;17.626;2023-07-30T04:54:36;4.97;;;3.40;;
60612;SDS011;46443;59.792;17.626;2023-07-30T04:57:03;5.73;;;3.67;;
60612;SDS011;46443;59.792;17.626;2023-07-30T04:59:29;6.13;;;3.60;;
60612;SDS011;46443;59.792;17.626;2023-07-30T05:01:55;6.40;;;3.97;;
60612;SDS011;46443;59.792;17.626;2023-07-30T05:04:21;5.47;;;3.60;;
60612;SDS011;46443;59.792;17.626;2023-07-30T05:06:47;6.40;;;3.73;;
60612;SDS011;46443;59.792;17.626;2023-07-30T05:09:13;5.60;;;3.80;;
60612;SDS011;46443;59.792;17.626;2023-07-30T05:11:39;6.10;;;3.90;;
60612;SDS011;46443;59.792;17.626;2023-07-30T05:14:06;6.23;;;4.33;;
60612;SDS011;46443;59.792;17.626;2023-07-30T05:16:32;6.90;;;4.00;;
60612;SDS011;46443;59.792;17.626;2023-07-30T05:18:58;5.13;;;3.60;;
60612;SDS011;46443;59.792;17.626;2023-07-30T05:21:24;5.80;;;4.00;;
60612;SDS011;46443;59.792;17.626;2023-07-30T05:23:50;6.20;;;4.10;;
60612;SDS011;46443;59.792;17.626;2023-07-30T05:26:16;5.67;;;3.80;;
60612;SDS011;46443;59.792;17.626;2023-07-30T05:28:42;5.33;;;3.80;;
60612;SDS011;46443;59.792;17.626;2023-07-30T05:31:08;5.93;;;3.80;;
60612;SDS011;46443;59.792;17.626;2023-07-30T05:33:34;9.13;;;4.67;;
60612;SDS011;46443;59.792;17.626;2023-07-30T05:36:01;6.30;;;4.17;;
60612;SDS011;46443;59.792;17.626;2023-07-30T05:38:27;5.90;;;4.00;;
60612;SDS011;46443;59.792;17.626;2023-07-30T05:40:53;6.03;;;4.23;;
60612;SDS011;46443;59.792;17.626;2023-07-30T05:43:19;6.90;;;4.73;;
60612;SDS011;46443;59.792;17.626;2023-07-30T05:45:45;7.27;;;4.77;;
60612;SDS011;46443;59.792;17.626;2023-07-30T05:48:11;6.07;;;4.43;;
60612;SDS011;46443;59.792;17.626;2023-07-30T05:50:37;6.03;;;4.53;;
60612;SDS011;46443;59.792;17.626;2023-07-30T05:53:03;7.03;;;4.30;;
60612;SDS011;46443;59.792;17.626;2023-07-30T05:55:30;6.07;;;3.90;;
60612;SDS011;46443;59.792;17.626;2023-07-30T05:57:56;6.23;;;4.10;;
60612;SDS011;46443;59.792;17.626;2023-07-30T06:00:22;6.57;;;4.33;;
60612;SDS011;46443;59.792;17.626;2023-07-30T06:02:49;6.23;;;3.97;;
60612;SDS011;46443;59.792;17.626;2023-07-30T06:05:15;6.03;;;4.00;;
60612;SDS011;46443;59.792;17.626;2023-07-30T06:07:41;8.73;;;4.80;;
60612;SDS011;46443;59.792;17.626;2023-07-30T06:10:07;7.53;;;4.30;;
60612;SDS011;46443;59.792;17.626;2023-07-30T06:12:33;6.83;;;4.63;;
60612;SDS011;46443;59.792;17.626;2023-07-30T06:14:59;6.50;;;4.40;;
60612;SDS011;46443;59.792;17.626;2023-07-30T06:17:25;6.03;;;4.00;;
60612;SDS011;46443;59.792;17.626;2023-07-30T06:19:51;6.40;;;4.10;;
60612;SDS011;46443;59.792;17.626;2023-07-30T06:22:17;8.03;;;4.80;;
60612;SDS011;46443;59.792;17.626;2023-07-30T06:24:43;6.03;;;3.97;;
60612;SDS011;46443;59.792;17.626;2023-07-30T06:27:10;5.80;;;4.37;;
60612;SDS011;46443;59.792;17.626;2023-07-30T06:29:37;7.10;;;4.50;;
60612;SDS011;46443;59.792;17.626;2023-07-30T06:32:03;5.87;;;4.10;;
60612;SDS011;46443;59.792;17.626;2023-07-30T06:34:30;6.57;;;4.20;;
60612;SDS011;46443;59.792;17.626;2023-07-30T06:36:56;6.20;;;4.07;;
60612;SDS011;46443;59.792;17.626;2023-07-30T06:39:22;6.47;;;4.07;;
60612;SDS011;46443;59.792;17.626;2023-07-30T06:41:48;5.70;;;4.07;;
60612;SDS011;46443;59.792;17.626;2023-07-30T06:44:14;6.53;;;4.30;;
60612;SDS011;46443;59.792;17.626;2023-07-30T06:46:41;6.77;;;4.17;;
60612;SDS011;46443;59.792;17.626;2023-07-30T06:49:07;5.63;;;4.20;;
60612;SDS011;46443;59.792;17.626;2023-07-30T06:51:33;5.90;;;4.20;;
60612;SDS011;46443;59.792;17.626;2023-07-30T06:53:59;5.83;;;4.37;;
60612;SDS011;46443;59.792;17.626;2023-07-30T06:56:25;7.57;;;4.00;;
60612;SDS011;46443;59.792;17.626;2023-07-30T06:58:51;5.63;;;4.13;;
60612;SDS011;46443;59.792;17.626;2023-07-30T07:01:17;5.73;;;3.73;;
60612;SDS011;46443;59.792;17.626;2023-07-30T07:03:43;5.87;;;4.07;;
60612;SDS011;46443;59.792;17.626;2023-07-30T07:06:09;6.03;;;3.80;;
60612;SDS011;46443;59.792;17.626;2023-07-30T07:08:35;5.43;;;3.63;;
60612;SDS011;46443;59.792;17.626;2023-07-30T07:11:01;4.90;;;3.57;;
60612;SDS011;46443;59.792;17.626;2023-07-30T07:13:27;7.50;;;3.90;;
60612;SDS011;46443;59.792;17.626;2023-07-30T07:15:54;6.10;;;4.10;;
60612;SDS011;46443;59.792;17.626;2023-07-30T07:18:20;6.15;;;3.92;;
60612;SDS011;46443;59.792;17.626;2023-07-30T07:20:46;5.77;;;3.77;;
60612;SDS011;46443;59.792;17.626;2023-07-30T07:23:12;6.45;;;4.28;;
60612;SDS011;46443;59.792;17.626;2023-07-30T07:25:38;5.32;;;3.80;;
60612;SDS011;46443;59.792;17.626;2023-07-30T07:28:04;8.45;;;3.90;;
60612;SDS011;46443;59.792;17.626;2023-07-30T07:30:30;6.23;;;4.30;;
60612;SDS011;46443;59.792;17.626;2023-07-30T07:32:56;5.85;;;3.83;;
60612;SDS011;46443;59.792;17.626;2023-07-30T07:35:23;5.80;;;4.23;;
60612;SDS011;46443;59.792;17.626;2023-07-30T07:37:49;5.97;;;4.07;;
60612;SDS011;46443;59.792;17.626;2023-07-30T07:40:15;6.33;;;3.90;;
60612;SDS011;46443;59.792;17.626;2023-07-30T07:42:41;7.00;;;4.20;;
60612;SDS011;46443;59.792;17.626;2023-07-30T07:45:07;6.50;;;4.13;;
60612;SDS011;46443;59.792;17.626;2023-07-30T07:47:34;6.30;;;4.40;;
60612;SDS011;46443;59.792;17.626;2023-07-30T07:50:00;7.93;;;4.00;;
60612;SDS011;46443;59.792;17.626;2023-07-30T07:52:26;6.23;;;4.33;;
60612;SDS011;46443;59.792;17.626;2023-07-30T07:54:52;9.00;;;4.47;;
60612;SDS011;46443;59.792;17.626;2023-07-30T07:57:18;5.63;;;4.05;;
60612;SDS011;46443;59.792;17.626;2023-07-30T07:59:44;6.57;;;3.87;;
60612;SDS011;46443;59.792;17.626;2023-07-30T08:02:13;6.05;;;4.28;;
60612;SDS011;46443;59.792;17.626;2023-07-30T08:04:40;5.53;;;3.97;;
60612;SDS011;46443;59.792;17.626;2023-07-30T08:07:06;5.53;;;3.95;;
60612;SDS011;46443;59.792;17.626;2023-07-30T08:09:32;6.05;;;3.85;;
60612;SDS011;46443;59.792;17.626;2023-07-30T08:11:59;5.60;;;4.07;;
60612;SDS011;46443;59.792;17.626;2023-07-30T08:14:25;5.20;;;3.80;;
60612;SDS011;46443;59.792;17.626;2023-07-30T08:16:52;6.05;;;4.00;;
60612;SDS011;46443;59.792;17.626;2023-07-30T08:19:18;5.78;;;3.97;;
60612;SDS011;46443;59.792;17.626;2023-07-30T08:21:44;5.22;;;4.10;;
60612;SDS011;46443;59.792;17.626;2023-07-30T08:24:10;5.75;;;3.75;;
60612;SDS011;46443;59.792;17.626;2023-07-30T08:26:36;5.60;;;4.10;;
60612;SDS011;46443;59.792;17.626;2023-07-30T08:29:02;5.28;;;4.03;;
60612;SDS011;46443;59.792;17.626;2023-07-30T08:31:28;7.60;;;4.00;;
60612;SDS011;46443;59.792;17.626;2023-07-30T08:33:54;6.00;;;3.97;;
60612;SDS011;46443;59.792;17.626;2023-07-30T08:36:20;6.07;;;3.80;;
60612;SDS011;46443;59.792;17.626;2023-07-30T08:38:46;5.00;;;3.35;;
60612;SDS011;46443;59.792;17.626;2023-07-30T08:41:13;5.50;;;3.70;;
60612;SDS011;46443;59.792;17.626;2023-07-30T08:43:39;5.10;;;3.22;;
60612;SDS011;46443;59.792;17.626;2023-07-30T08:46:05;5.03;;;3.55;;
60612;SDS011;46443;59.792;17.626;2023-07-30T08:48:31;4.85;;;3.38;;
60612;SDS011;46443;59.792;17.626;2023-07-30T08:50:57;6.60;;;3.53;;
60612;SDS011;46443;59.792;17.626;2023-07-30T08:53:26;5.07;;;3.58;;
60612;SDS011;46443;59.792;17.626;2023-07-30T08:55:55;4.22;;;2.97;;
60612;SDS011;46443;59.792;17.626;2023-07-30T08:58:22;5.38;;;3.20;;
60612;SDS011;46443;59.792;17.626;2023-07-30T09:00:49;4.35;;;2.67;;
60612;SDS011;46443;59.792;17.626;2023-07-30T09:03:16;5.10;;;3.33;;
60612;SDS011;46443;59.792;17.626;2023-07-30T09:05:43;4.38;;;3.38;;
60612;SDS011;46443;59.792;17.626;2023-07-30T09:08:09;5.25;;;3.03;;
60612;SDS011;46443;59.792;17.626;2023-07-30T09:10:36;5.07;;;3.38;;
60612;SDS011;46443;59.792;17.626;2023-07-30T09:13:02;4.20;;;3.00;;
60612;SDS011;46443;59.792;17.626;2023-07-30T09:15:35;4.40;;;3.15;;
60612;SDS011;46443;59.792;17.626;2023-07-30T09:18:05;5.03;;;3.00;;
60612;SDS011;46443;59.792;17.626;2023-07-30T09:20:38;6.05;;;3.50;;
60612;SDS011;46443;59.792;17.626;2023-07-30T09:23:04;4.30;;;3.00;;
60612;SDS011;46443;59.792;17.626;2023-07-30T09:25:32;4.90;;;3.13;;
60612;SDS011;46443;59.792;17.626;2023-07-30T09:27:58;5.90;;;3.30;;
60612;SDS011;46443;59.792;17.626;2023-07-30T09:30:24;5.57;;;3.33;;
60612;SDS011;46443;59.792;17.626;2023-07-30T09:32:53;4.53;;;3.53;;
60612;SDS011;46443;59.792;17.626;2023-07-30T09:35:20;5.00;;;3.38;;
60612;SDS011;46443;59.792;17.626;2023-07-30T09:37:47;5.03;;;3.15;;
60612;SDS011;46443;59.792;17.626;2023-07-30T09:40:13;4.88;;;3.38;;
60612;SDS011;46443;59.792;17.626;2023-07-30T09:42:43;6.07;;;3.80;;
60612;SDS011;46443;59.792;17.626;2023-07-30T09:47:38;5.22;;;3.45;;
60612;SDS011;46443;59.792;17.626;2023-07-30T09:50:04;4.85;;;3.40;;
60612;SDS011;46443;59.792;17.626;2023-07-30T09:52:30;5.05;;;3.38;;
60612;SDS011;46443;59.792;17.626;2023-07-30T09:54:57;4.00;;;3.22;;
60612;SDS011;46443;59.792;17.626;2023-07-30T09:57:24;5.50;;;3.80;;
60612;SDS011;46443;59.792;17.626;2023-07-30T09:59:50;5.03;;;3.42;;
60612;SDS011;46443;59.792;17.626;2023-07-30T10:02:18;5.93;;;3.70;;
60612;SDS011;46443;59.792;17.626;2023-07-30T10:04:45;5.35;;;3.25;;
60612;SDS011;46443;59.792;17.626;2023-07-30T10:09:40;6.45;;;3.28;;
60612;SDS011;46443;59.792;17.626;2023-07-30T10:12:12;4.78;;;3.10;;
60612;SDS011;46443;59.792;17.626;2023-07-30T10:14:39;6.75;;;3.30;;
60612;SDS011;46443;59.792;17.626;2023-07-30T10:17:09;3.63;;;2.95;;
60612;SDS011;46443;59.792;17.626;2023-07-30T10:19:35;5.03;;;3.13;;
60612;SDS011;46443;59.792;17.626;2023-07-30T10:22:19;4.57;;;3.10;;
60612;SDS011;46443;59.792;17.626;2023-07-30T10:24:55;4.95;;;2.95;;
60612;SDS011;46443;59.792;17.626;2023-07-30T10:27:26;5.95;;;3.53;;
60612;SDS011;46443;59.792;17.626;2023-07-30T10:32:38;5.40;;;3.00;;
60612;SDS011;46443;59.792;17.626;2023-07-30T10:35:04;4.38;;;3.13;;
60612;SDS011;46443;59.792;17.626;2023-07-30T10:37:30;5.72;;;3.30;;
60612;SDS011;46443;59.792;17.626;2023-07-30T10:39:56;5.07;;;3.40;;
60612;SDS011;46443;59.792;17.626;2023-07-30T10:42:23;6.75;;;3.25;;
60612;SDS011;46443;59.792;17.626;2023-07-30T10:44:49;6.03;;;3.45;;
60612;SDS011;46443;59.792;17.626;2023-07-30T10:47:15;5.85;;;3.65;;
60612;SDS011;46443;59.792;17.626;2023-07-30T10:49:41;4.20;;;2.92;;
60612;SDS011;46443;59.792;17.626;2023-07-30T10:52:09;6.57;;;4.00;;
60612;SDS011;46443;59.792;17.626;2023-07-30T10:54:35;4.57;;;3.50;;
60612;SDS011;46443;59.792;17.626;2023-07-30T10:57:05;5.45;;;3.80;;
60612;SDS011;46443;59.792;17.626;2023-07-30T10:59:34;5.18;;;3.35;;
60612;SDS011;46443;59.792;17.626;2023-07-30T11:02:01;5.18;;;3.53;;
60612;SDS011;46443;59.792;17.626;2023-07-30T11:04:27;5.85;;;3.63;;
60612;SDS011;46443;59.792;17.626;2023-07-30T11:06:53;5.00;;;3.40;;
60612;SDS011;46443;59.792;17.626;2023-07-30T11:09:21;5.00;;;3.33;;
60612;SDS011;46443;59.792;17.626;2023-07-30T11:11:47;5.07;;;3.50;;
60612;SDS011;46443;59.792;17.626;2023-07-30T11:14:16;6.47;;;3.30;;
60612;SDS011;46443;59.792;17.626;2023-07-30T11:16:54;4.75;;;3.10;;
60612;SDS011;46443;59.792;17.626;2023-07-30T11:19:22;4.53;;;3.33;;
60612;SDS011;46443;59.792;17.626;2023-07-30T11:21:48;5.63;;;3.85;;
60612;SDS011;46443;59.792;17.626;2023-07-30T11:24:15;5.85;;;4.07;;
60612;SDS011;46443;59.792;17.626;2023-07-30T11:26:41;6.85;;;4.50;;
60612;SDS011;46443;59.792;17.626;2023-07-30T11:29:17;6.22;;;4.07;;
60612;SDS011;46443;59.792;17.626;2023-07-30T11:31:43;6.15;;;4.18;;
60612;SDS011;46443;59.792;17.626;2023-07-30T11:34:10;5.72;;;3.95;;
60612;SDS011;46443;59.792;17.626;2023-07-30T11:36:36;5.80;;;3.88;;
60612;SDS011;46443;59.792;17.626;2023-07-30T11:39:02;5.93;;;3.83;;
60612;SDS011;46443;59.792;17.626;2023-07-30T11:41:29;8.55;;;3.92;;
60612;SDS011;46443;59.792;17.626;2023-07-30T11:43:55;6.18;;;3.80;;
60612;SDS011;46443;59.792;17.626;2023-07-30T11:46:21;4.72;;;3.35;;
60612;SDS011;46443;59.792;17.626;2023-07-30T11:48:48;8.48;;;3.25;;
60612;SDS011;46443;59.792;17.626;2023-07-30T11:51:24;8.23;;;3.80;;
60612;SDS011;46443;59.792;17.626;2023-07-30T11:53:58;5.00;;;3.42;;
60612;SDS011;46443;59.792;17.626;2023-07-30T11:56:28;4.68;;;3.25;;
60612;SDS011;46443;59.792;17.626;2023-07-30T11:58:55;6.13;;;3.58;;
60612;SDS011;46443;59.792;17.626;2023-07-30T12:01:23;6.95;;;3.30;;
60612;SDS011;46443;59.792;17.626;2023-07-30T12:03:50;5.93;;;2.90;;
60612;SDS011;46443;59.792;17.626;2023-07-30T12:06:16;6.93;;;3.10;;
60612;SDS011;46443;59.792;17.626;2023-07-30T12:08:42;4.87;;;3.00;;
60612;SDS011;46443;59.792;17.626;2023-07-30T12:11:09;5.60;;;2.80;;
60612;SDS011;46443;59.792;17.626;2023-07-30T12:13:42;4.63;;;2.90;;
60612;SDS011;46443;59.792;17.626;2023-07-30T12:16:10;7.20;;;3.13;;
60612;SDS011;46443;59.792;17.626;2023-07-30T12:18:37;4.43;;;2.60;;
60612;SDS011;46443;59.792;17.626;2023-07-30T12:21:05;6.00;;;2.93;;
60612;SDS011;46443;59.792;17.626;2023-07-30T12:23:33;4.73;;;2.80;;
60612;SDS011;46443;59.792;17.626;2023-07-30T12:25:59;5.50;;;2.93;;
60612;SDS011;46443;59.792;17.626;2023-07-30T12:28:25;7.33;;;2.93;;
60612;SDS011;46443;59.792;17.626;2023-07-30T12:30:51;6.47;;;2.80;;
60612;SDS011;46443;59.792;17.626;2023-07-30T12:33:17;4.83;;;2.60;;
60612;SDS011;46443;59.792;17.626;2023-07-30T12:35:44;7.47;;;2.63;;
60612;SDS011;46443;59.792;17.626;2023-07-30T12:38:10;4.67;;;2.70;;
60612;SDS011;46443;59.792;17.626;2023-07-30T12:40:36;7.93;;;2.90;;
60612;SDS011;46443;59.792;17.626;2023-07-30T12:43:02;5.07;;;2.93;;
60612;SDS011;46443;59.792;17.626;2023-07-30T12:45:31;5.70;;;3.10;;
60612;SDS011;46443;59.792;17.626;2023-07-30T12:47:57;13.55;;;3.20;;
60612;SDS011;46443;59.792;17.626;2023-07-30T12:50:24;5.07;;;2.60;;
60612;SDS011;46443;59.792;17.626;2023-07-30T12:52:50;5.03;;;2.93;;
60612;SDS011;46443;59.792;17.626;2023-07-30T12:55:16;5.60;;;2.77;;
60612;SDS011;46443;59.792;17.626;2023-07-30T12:57:42;4.60;;;2.87;;
60612;SDS011;46443;59.792;17.626;2023-07-30T13:00:08;4.67;;;3.07;;
60612;SDS011;46443;59.792;17.626;2023-07-30T13:02:34;5.27;;;2.90;;
60612;SDS011;46443;59.792;17.626;2023-07-30T13:05:01;4.07;;;2.80;;
60612;SDS011;46443;59.792;17.626;2023-07-30T13:07:29;4.90;;;2.93;;
60612;SDS011;46443;59.792;17.626;2023-07-30T13:10:07;4.83;;;3.00;;
60612;SDS011;46443;59.792;17.626;2023-07-30T13:12:34;7.47;;;3.55;;
60612;SDS011;46443;59.792;17.626;2023-07-30T13:15:01;7.37;;;3.57;;
60612;SDS011;46443;59.792;17.626;2023-07-30T13:17:28;6.47;;;3.60;;
60612;SDS011;46443;59.792;17.626;2023-07-30T13:19:54;6.17;;;3.67;;
60612;SDS011;46443;59.792;17.626;2023-07-30T13:22:20;7.63;;;4.17;;
60612;SDS011;46443;59.792;17.626;2023-07-30T13:24:46;7.03;;;3.40;;
60612;SDS011;46443;59.792;17.626;2023-07-30T13:27:12;6.67;;;3.37;;
60612;SDS011;46443;59.792;17.626;2023-07-30T13:29:38;6.40;;;4.00;;
60612;SDS011;46443;59.792;17.626;2023-07-30T13:32:05;9.13;;;4.00;;
60612;SDS011;46443;59.792;17.626;2023-07-30T13:34:31;7.57;;;3.93;;
60612;SDS011;46443;59.792;17.626;2023-07-30T13:36:57;5.63;;;3.60;;
60612;SDS011;46443;59.792;17.626;2023-07-30T13:39:23;7.33;;;4.00;;
60612;SDS011;46443;59.792;17.626;2023-07-30T13:41:49;7.40;;;3.93;;
60612;SDS011;46443;59.792;17.626;2023-07-30T13:44:16;7.33;;;3.93;;
60612;SDS011;46443;59.792;17.626;2023-07-30T13:46:42;5.70;;;3.40;;
60612;SDS011;46443;59.792;17.626;2023-07-30T13:49:08;5.63;;;3.50;;
60612;SDS011;46443;59.792;17.626;2023-07-30T13:51:34;5.90;;;3.37;;
60612;SDS011;46443;59.792;17.626;2023-07-30T13:54:00;6.43;;;3.60;;
60612;SDS011;46443;59.792;17.626;2023-07-30T13:56:27;6.50;;;3.97;;
60612;SDS011;46443;59.792;17.626;2023-07-30T13:58:53;4.87;;;3.70;;
60612;SDS011;46443;59.792;17.626;2023-07-30T14:01:20;6.03;;;3.70;;
60612;SDS011;46443;59.792;17.626;2023-07-30T14:03:46;6.13;;;4.10;;
60612;SDS011;46443;59.792;17.626;2023-07-30T14:06:12;6.57;;;3.63;;
60612;SDS011;46443;59.792;17.626;2023-07-30T14:08:38;6.83;;;3.90;;
60612;SDS011;46443;59.792;17.626;2023-07-30T14:11:04;6.00;;;3.90;;
60612;SDS011;46443;59.792;17.626;2023-07-30T14:13:30;6.23;;;3.73;;
60612;SDS011;46443;59.792;17.626;2023-07-30T14:15:57;5.50;;;3.33;;
60612;SDS011;46443;59.792;17.626;2023-07-30T14:18:26;6.00;;;3.97;;
60612;SDS011;46443;59.792;17.626;2023-07-30T14:20:52;5.78;;;3.65;;
60612;SDS011;46443;59.792;17.626;2023-07-30T14:23:18;5.97;;;3.77;;
60612;SDS011;46443;59.792;17.626;2023-07-30T14:25:44;6.57;;;3.57;;
60612;SDS011;46443;59.792;17.626;2023-07-30T14:28:10;5.27;;;3.57;;
60612;SDS011;46443;59.792;17.626;2023-07-30T14:30:36;4.67;;;3.17;;
60612;SDS011;46443;59.792;17.626;2023-07-30T14:33:09;5.93;;;3.77;;
60612;SDS011;46443;59.792;17.626;2023-07-30T14:35:35;4.87;;;3.23;;
60612;SDS011;46443;59.792;17.626;2023-07-30T14:38:03;6.23;;;4.00;;
60612;SDS011;46443;59.792;17.626;2023-07-30T14:40:29;7.17;;;3.47;;